Time;durP1;ratioP1;P1;durP2;ratioP2;P2;SDS_P1;SDS_P2;PMS_P1;PMS_P2;Temp;Humidity;BMP_temperature;BMP_pressure;BME280_temperature;BME280_humidity;BME280_pressure;Samples;Min_cycle;Max_cycle;Signal;HPM_P1;HPM_P2
2021/12/18 00:00:29;;;;;;;1.00;0.80;;;21.10;43.40;;;;;;5034482;28;20041;-50
2021/12/18 00:02:55;;;;;;;0.63;0.55;;;21.10;43.40;;;;;;5054302;28;20435;-54
2021/12/18 00:05:21;;;;;;;0.73;0.60;;;21.10;43.40;;;;;;5044298;28;20049;-52
2021/12/18 00:07:47;;;;;;;0.65;0.63;;;21.10;43.50;;;;;;5038592;28;20449;-50
2021/12/18 00:10:13;;;;;;;0.80;0.70;;;21.10;43.50;;;;;;5048102;28;20040;-48
2021/12/18 00:12:47;;;;;;;0.90;0.68;;;21.10;43.50;;;;;;5043894;28;20452;-51
2021/12/18 00:15:13;;;;;;;0.80;0.70;;;21.00;43.50;;;;;;5040567;28;20103;-54
2021/12/18 00:17:39;;;;;;;0.65;0.60;;;21.00;43.50;;;;;;5057562;28;20021;-46
2021/12/18 00:20:06;;;;;;;0.80;0.63;;;21.00;43.50;;;;;;5050146;28;20128;-50
2021/12/18 00:22:32;;;;;;;0.60;0.60;;;21.00;43.50;;;;;;5038230;28;20048;-50
2021/12/18 00:24:57;;;;;;;0.65;0.57;;;21.00;43.50;;;;;;5045523;28;20020;-52
2021/12/18 00:27:24;;;;;;;0.50;0.50;;;21.00;43.50;;;;;;5038329;28;20072;-49
2021/12/18 00:29:50;;;;;;;1.80;0.70;;;21.00;43.50;;;;;;5039046;28;20035;-50
2021/12/18 00:32:15;;;;;;;0.65;0.63;;;21.00;43.50;;;;;;5037835;28;20017;-55
2021/12/18 00:34:41;;;;;;;0.73;0.70;;;21.00;43.50;;;;;;5050945;28;20025;-51
2021/12/18 00:37:07;;;;;;;0.88;0.60;;;21.00;43.60;;;;;;5057237;28;20033;-53
2021/12/18 00:39:37;;;;;;;0.80;0.77;;;21.00;43.60;;;;;;5045415;28;20029;-51
2021/12/18 00:44:47;;;;;;;;;;;21.00;43.60;;;;;;5051733;28;20040;-53
2021/12/18 00:47:13;;;;;;;0.55;0.50;;;21.00;43.60;;;;;;5056598;28;19912;-52
2021/12/18 00:49:39;;;;;;;0.40;0.40;;;20.90;43.60;;;;;;5051211;28;20124;-49
2021/12/18 00:52:05;;;;;;;0.70;0.60;;;20.90;43.60;;;;;;5056356;28;20029;-50
2021/12/18 00:54:31;;;;;;;0.65;0.60;;;20.90;43.60;;;;;;5048957;28;20071;-50
2021/12/18 00:56:58;;;;;;;0.40;0.40;;;20.90;43.60;;;;;;5057510;28;20033;-48
2021/12/18 00:59:24;;;;;;;0.60;0.50;;;21.00;43.70;;;;;;5051701;28;20036;-54
2021/12/18 01:01:50;;;;;;;0.68;0.52;;;20.90;43.60;;;;;;5038446;28;20048;-50
2021/12/18 01:04:16;;;;;;;0.60;0.60;;;20.90;43.60;;;;;;5046807;28;20040;-52
2021/12/18 01:06:41;;;;;;;0.80;0.60;;;20.90;43.60;;;;;;5043403;28;20389;-48
2021/12/18 01:09:07;;;;;;;1.63;0.50;;;20.90;43.60;;;;;;5056363;28;20059;-52
2021/12/18 01:11:46;;;;;;;0.68;0.60;;;20.90;43.60;;;;;;5054757;28;20021;-54
2021/12/18 01:24:31;;;;;;;0.70;0.70;;;20.90;43.70;;;;;;5038428;28;20041;-50
2021/12/18 01:26:57;;;;;;;0.70;0.60;;;20.90;43.70;;;;;;5045251;28;20074;-47
2021/12/18 01:29:23;;;;;;;0.47;0.47;;;20.90;43.70;;;;;;5056056;28;20113;-48
2021/12/18 01:31:49;;;;;;;0.85;0.50;;;20.90;43.70;;;;;;5052942;28;20088;-50
2021/12/18 01:34:15;;;;;;;0.45;0.40;;;20.90;43.70;;;;;;5045024;28;20436;-47
2021/12/18 01:36:41;;;;;;;0.52;0.52;;;20.90;43.70;;;;;;5038107;28;20029;-48
2021/12/18 01:39:06;;;;;;;0.70;0.50;;;20.90;43.70;;;;;;5051211;28;20031;-48
2021/12/18 01:41:42;;;;;;;0.40;0.40;;;20.80;43.70;;;;;;5052820;28;20044;-47
2021/12/18 01:47:02;;;;;;;1.77;0.50;;;20.80;43.70;;;;;;5037748;28;20392;-48
2021/12/18 01:52:19;;;;;;;0.40;0.40;;;20.80;43.70;;;;;;5037755;28;20025;-50
2021/12/18 01:54:46;;;;;;;0.52;0.43;;;20.80;43.70;;;;;;5036573;28;20021;-53
2021/12/18 01:57:14;;;;;;;0.57;0.57;;;20.80;43.70;;;;;;5037246;28;20025;-45
2021/12/18 01:59:47;;;;;;;0.73;0.70;;;20.80;43.70;;;;;;5036711;28;20025;-49
2021/12/18 02:02:13;;;;;;;0.68;0.52;;;20.80;43.70;;;;;;5039010;28;20041;-48
2021/12/18 02:04:40;;;;;;;0.73;0.50;;;20.80;43.70;;;;;;5046907;28;20021;-51
2021/12/18 02:07:07;;;;;;;0.50;0.50;;;20.80;43.70;;;;;;5036442;28;20029;-52
2021/12/18 02:09:55;;;;;;;0.73;0.50;;;20.80;43.70;;;;;;5037098;28;20026;-48
2021/12/18 02:12:23;;;;;;;0.40;0.40;;;20.80;43.70;;;;;;5046367;28;20159;-49
2021/12/18 02:23:04;;;;;;;1.25;0.70;;;20.80;43.90;;;;;;5035256;28;20477;-48
2021/12/18 02:25:34;;;;;;;0.70;0.50;;;20.70;43.90;;;;;;5036902;28;20095;-54
2021/12/18 02:28:00;;;;;;;0.63;0.50;;;20.80;43.90;;;;;;5035342;28;20416;-52
2021/12/18 02:30:27;;;;;;;1.10;0.60;;;20.80;43.90;;;;;;5035775;28;20056;-50
2021/12/18 02:32:53;;;;;;;0.90;0.50;;;20.70;43.80;;;;;;5050769;28;20036;-47
2021/12/18 02:35:36;;;;;;;0.47;0.47;;;20.70;43.80;;;;;;5053201;28;20386;-46
2021/12/18 02:38:09;;;;;;;0.43;0.40;;;20.70;43.80;;;;;;5055504;28;20040;-47
2021/12/18 02:43:10;;;;;;;0.50;0.50;;;20.70;43.80;;;;;;5039261;28;20082;-49
2021/12/18 02:45:35;;;;;;;0.50;0.50;;;20.80;43.80;;;;;;5044188;28;20025;-48
2021/12/18 02:48:01;;;;;;;0.50;0.50;;;20.80;43.80;;;;;;5035785;28;20333;-46
2021/12/18 02:50:27;;;;;;;0.50;0.50;;;20.80;43.80;;;;;;5052445;28;20051;-47
2021/12/18 02:52:53;;;;;;;0.45;0.45;;;20.70;43.70;;;;;;5051682;28;20050;-48
2021/12/18 02:55:19;;;;;;;0.40;0.40;;;20.70;43.70;;;;;;5050776;28;20120;-51
2021/12/18 02:57:44;;;;;;;0.52;0.50;;;20.70;43.70;;;;;;5054199;28;20055;-51
2021/12/18 03:00:11;;;;;;;0.40;0.40;;;20.70;43.80;;;;;;5035981;28;20328;-48
2021/12/18 03:02:42;;;;;;;0.43;0.43;;;20.70;43.80;;;;;;5035381;28;20387;-48
2021/12/18 03:05:11;;;;;;;0.55;0.50;;;20.70;43.80;;;;;;5038929;28;20056;-50
2021/12/18 03:07:37;;;;;;;0.50;0.50;;;20.70;43.70;;;;;;5054074;28;20039;-52
2021/12/18 03:23:46;;;;;;;0.50;0.50;;;20.70;43.80;;;;;;5039912;28;20096;-52
2021/12/18 03:26:13;;;;;;;0.47;0.43;;;20.60;43.70;;;;;;5049443;28;20048;-49
2021/12/18 03:28:40;;;;;;;0.30;0.30;;;20.70;43.80;;;;;;5050989;28;20043;-52
2021/12/18 03:31:05;;;;;;;0.63;0.30;;;20.70;43.80;;;;;;5039010;28;20108;-51
2021/12/18 03:33:31;;;;;;;0.40;0.40;;;20.70;43.70;;;;;;5034535;28;20105;-49
2021/12/18 03:35:57;;;;;;;0.50;0.50;;;20.70;43.60;;;;;;5034497;28;20040;-50
2021/12/18 03:38:23;;;;;;;0.55;0.40;;;20.80;43.50;;;;;;5034986;28;20073;-48
2021/12/18 03:40:49;;;;;;;0.40;0.40;;;20.80;43.50;;;;;;5037539;28;20503;-52
2021/12/18 03:43:15;;;;;;;0.68;0.50;;;20.90;43.40;;;;;;5049954;28;20060;-51
2021/12/18 03:45:41;;;;;;;0.85;0.50;;;20.90;43.40;;;;;;5040875;28;20462;-49
2021/12/18 03:48:07;;;;;;;0.55;0.38;;;20.90;43.30;;;;;;5057311;28;20075;-51
2021/12/18 03:50:33;;;;;;;0.70;0.38;;;20.90;43.20;;;;;;5058788;28;20124;-47
2021/12/18 03:52:59;;;;;;;0.20;0.20;;;21.00;43.20;;;;;;5047761;28;20339;-48
2021/12/18 03:55:26;;;;;;;0.60;0.40;;;20.90;43.10;;;;;;5038569;28;20029;-50
2021/12/18 03:57:53;;;;;;;0.38;0.38;;;21.00;43.20;;;;;;5038262;28;20101;-50
2021/12/18 04:00:19;;;;;;;0.30;0.30;;;21.00;43.10;;;;;;5037864;28;20030;-46
2021/12/18 04:02:45;;;;;;;0.68;0.40;;;21.00;43.00;;;;;;5041744;28;20029;-49
2021/12/18 04:05:12;;;;;;;0.47;0.40;;;21.00;43.00;;;;;;5058463;28;20039;-48
2021/12/18 04:07:42;;;;;;;0.40;0.40;;;21.00;42.90;;;;;;5052356;28;20065;-54
2021/12/18 04:10:09;;;;;;;0.43;0.35;;;21.10;43.00;;;;;;5058200;28;20035;-51
2021/12/18 04:12:35;;;;;;;0.30;0.30;;;21.00;42.90;;;;;;5051864;28;20463;-50
2021/12/18 04:15:01;;;;;;;0.50;0.50;;;21.10;42.90;;;;;;5058004;28;20053;-50
2021/12/18 04:17:27;;;;;;;0.30;0.30;;;21.10;42.90;;;;;;5048338;28;20033;-52
2021/12/18 04:19:57;;;;;;;0.47;0.47;;;21.10;42.90;;;;;;5051145;28;20423;-49
2021/12/18 04:22:23;;;;;;;0.52;0.52;;;21.10;42.80;;;;;;5051761;28;20033;-46
2021/12/18 04:24:49;;;;;;;0.40;0.40;;;21.10;42.80;;;;;;5040740;28;20035;-50
2021/12/18 04:27:15;;;;;;;0.40;0.40;;;21.10;42.80;;;;;;5055920;28;20123;-53
2021/12/18 04:29:40;;;;;;;0.52;0.30;;;21.10;42.70;;;;;;5057839;28;20027;-51
2021/12/18 04:32:06;;;;;;;0.35;0.30;;;21.10;42.70;;;;;;5046705;28;20356;-53
2021/12/18 04:34:32;;;;;;;0.75;0.35;;;21.10;42.70;;;;;;5048478;28;20056;-53
2021/12/18 04:36:58;;;;;;;0.50;0.50;;;21.10;42.70;;;;;;5040242;28;20025;-47
2021/12/18 04:39:24;;;;;;;0.50;0.50;;;21.10;42.60;;;;;;5050724;28;20033;-49
2021/12/18 04:41:57;;;;;;;2.50;0.40;;;21.10;42.60;;;;;;5037697;28;20032;-51
2021/12/18 04:44:26;;;;;;;0.40;0.40;;;21.10;42.60;;;;;;5053869;28;20321;-52
2021/12/18 04:46:53;;;;;;;0.40;0.40;;;21.20;42.60;;;;;;5056405;28;20120;-54
2021/12/18 04:49:18;;;;;;;0.47;0.30;;;21.20;43.20;;;;;;5057680;28;20068;-46
2021/12/18 04:51:45;;;;;;;0.50;0.40;;;21.10;42.50;;;;;;5055009;28;20048;-48
2021/12/18 04:54:10;;;;;;;0.40;0.40;;;21.20;42.60;;;;;;5037614;28;20052;-54
2021/12/18 04:56:36;;;;;;;0.40;0.40;;;21.10;42.50;;;;;;5049641;28;20053;-48
2021/12/18 04:59:03;;;;;;;0.32;0.30;;;21.10;42.50;;;;;;5038597;28;20021;-48
2021/12/18 05:01:29;;;;;;;0.35;0.35;;;21.20;42.50;;;;;;5037340;28;20041;-47
2021/12/18 05:03:55;;;;;;;0.52;0.50;;;21.20;42.50;;;;;;5036842;28;20048;-45
2021/12/18 05:06:21;;;;;;;0.35;0.35;;;21.20;42.50;;;;;;5038185;28;20020;-49
2021/12/18 05:08:47;;;;;;;0.70;0.50;;;21.20;42.50;;;;;;5056888;28;20037;-48
2021/12/18 05:11:12;;;;;;;0.35;0.35;;;21.20;42.50;;;;;;5055998;28;20159;-51
2021/12/18 05:13:38;;;;;;;0.30;0.30;;;21.20;42.50;;;;;;5039370;28;20029;-48
2021/12/18 05:16:04;;;;;;;0.50;0.40;;;21.20;42.50;;;;;;5056428;28;20029;-47
2021/12/18 05:18:30;;;;;;;0.40;0.40;;;21.20;42.50;;;;;;5056552;28;20025;-49
2021/12/18 05:20:55;;;;;;;0.47;0.30;;;21.20;42.40;;;;;;5056491;28;20513;-50
2021/12/18 05:23:21;;;;;;;0.32;0.32;;;21.20;42.40;;;;;;5053975;28;20021;-52
2021/12/18 05:25:47;;;;;;;0.50;0.50;;;21.20;42.40;;;;;;5050388;28;20151;-49
2021/12/18 05:28:13;;;;;;;0.55;0.50;;;21.20;42.40;;;;;;5053004;28;20143;-48
2021/12/18 05:30:39;;;;;;;0.50;0.47;;;21.20;42.40;;;;;;5056864;28;20363;-45
2021/12/18 05:33:05;;;;;;;0.40;0.40;;;21.20;42.40;;;;;;5055342;28;20029;-51
2021/12/18 05:35:31;;;;;;;0.30;0.30;;;21.20;42.40;;;;;;5038077;28;20314;-47
2021/12/18 05:38:04;;;;;;;0.45;0.40;;;21.20;42.30;;;;;;5040897;28;20057;-54
2021/12/18 05:40:31;;;;;;;0.40;0.40;;;21.20;42.30;;;;;;5050492;28;20095;-48
2021/12/18 05:42:57;;;;;;;0.38;0.30;;;21.20;42.30;;;;;;5041482;28;20044;-50
2021/12/18 05:45:23;;;;;;;0.40;0.40;;;21.10;42.30;;;;;;5049936;28;20384;-49
2021/12/18 05:47:49;;;;;;;0.47;0.30;;;21.20;42.30;;;;;;5042377;28;20040;-46
2021/12/18 05:50:18;;;;;;;0.38;0.38;;;21.20;42.30;;;;;;5036269;28;20083;-49
2021/12/18 05:52:45;;;;;;;0.30;0.30;;;21.20;42.90;;;;;;5038754;28;20116;-49
2021/12/18 05:55:12;;;;;;;0.40;0.40;;;21.20;42.20;;;;;;5047989;28;20429;-49
2021/12/18 05:57:37;;;;;;;0.35;0.30;;;21.20;42.20;;;;;;5043245;28;20132;-46
2021/12/18 06:00:06;;;;;;;0.45;0.30;;;21.20;42.20;;;;;;5046677;28;20071;-50
2021/12/18 06:02:33;;;;;;;0.20;0.20;;;21.20;42.20;;;;;;5053483;28;20386;-50
2021/12/18 06:04:59;;;;;;;0.30;0.30;;;21.20;42.20;;;;;;5044575;28;20116;-46
2021/12/18 06:07:30;;;;;;;0.30;0.30;;;21.10;42.10;;;;;;5048847;28;20120;-50
2021/12/18 06:09:57;;;;;;;0.30;0.30;;;21.20;42.20;;;;;;5045423;28;20083;-45
2021/12/18 06:12:23;;;;;;;0.30;0.30;;;21.20;42.10;;;;;;5050079;28;20043;-45
2021/12/18 06:14:49;;;;;;;0.30;0.30;;;21.20;42.10;;;;;;5028948;28;20097;-47
2021/12/18 06:17:15;;;;;;;0.28;0.28;;;21.20;42.10;;;;;;5037134;28;20400;-49
2021/12/18 06:19:41;;;;;;;0.30;0.20;;;21.20;42.10;;;;;;5051458;28;20108;-47
2021/12/18 06:22:06;;;;;;;0.45;0.40;;;21.20;42.10;;;;;;5051279;28;20408;-49
2021/12/18 06:24:32;;;;;;;0.20;0.20;;;21.20;42.10;;;;;;5055819;28;20040;-47
2021/12/18 06:26:58;;;;;;;0.28;0.28;;;21.20;42.10;;;;;;5046895;28;20086;-47
2021/12/18 06:29:23;;;;;;;0.22;0.22;;;21.20;42.10;;;;;;5055610;28;20033;-48
2021/12/18 06:31:49;;;;;;;0.20;0.20;;;21.20;42.10;;;;;;5053530;28;20024;-48
2021/12/18 06:34:16;;;;;;;0.40;0.30;;;21.10;42.00;;;;;;5050264;28;20040;-48
2021/12/18 06:36:42;;;;;;;0.30;0.20;;;21.10;42.00;;;;;;5035616;28;20044;-51
2021/12/18 06:39:08;;;;;;;0.30;0.30;;;21.20;42.10;;;;;;5035698;28;20017;-53
2021/12/18 06:41:34;;;;;;;0.30;0.30;;;21.10;42.00;;;;;;5036161;28;20348;-50
2021/12/18 06:44:00;;;;;;;0.20;0.20;;;21.10;41.90;;;;;;5035455;28;20092;-48
2021/12/18 06:46:26;;;;;;;0.30;0.30;;;21.10;41.90;;;;;;5035240;28;20112;-54
2021/12/18 06:48:52;;;;;;;0.20;0.20;;;21.20;42.00;;;;;;5035336;28;20045;-49
2021/12/18 06:51:19;;;;;;;0.20;0.20;;;21.10;41.90;;;;;;5036629;28;20021;-50
2021/12/18 06:53:45;;;;;;;0.20;0.20;;;21.20;41.90;;;;;;5035319;28;20068;-54
2021/12/18 06:56:11;;;;;;;0.13;0.13;;;21.10;41.80;;;;;;5040415;28;20068;-49
2021/12/18 06:58:37;;;;;;;0.20;0.20;;;21.10;41.80;;;;;;5017771;28;20040;-49
2021/12/18 07:01:03;;;;;;;0.20;0.20;;;21.10;41.90;;;;;;5045278;28;20097;-48
2021/12/18 07:03:29;;;;;;;0.15;0.15;;;21.10;41.80;;;;;;5037277;28;20040;-54
2021/12/18 07:05:55;;;;;;;0.13;0.13;;;21.10;41.80;;;;;;5051365;28;20375;-50
2021/12/18 07:08:21;;;;;;;0.10;0.10;;;21.10;41.70;;;;;;5054988;28;20305;-53
2021/12/18 07:10:47;;;;;;;0.10;0.10;;;21.10;41.70;;;;;;5038904;28;20095;-50
2021/12/18 07:13:13;;;;;;;0.35;0.20;;;21.10;41.70;;;;;;5034850;28;20037;-48
2021/12/18 07:15:39;;;;;;;0.10;0.10;;;21.20;41.70;;;;;;5047527;28;20044;-45
2021/12/18 07:18:05;;;;;;;0.20;0.20;;;21.10;41.60;;;;;;5055016;28;20033;-47
2021/12/18 07:20:32;;;;;;;0.10;0.10;;;21.10;41.60;;;;;;5043955;28;20051;-48
2021/12/18 07:22:58;;;;;;;0.20;0.20;;;21.10;41.60;;;;;;5054762;28;20340;-49
2021/12/18 07:25:24;;;;;;;0.75;0.20;;;21.10;41.50;;;;;;5040657;28;20057;-49
2021/12/18 07:27:49;;;;;;;0.10;0.10;;;21.10;41.50;;;;;;5035683;28;20068;-46
2021/12/18 07:30:15;;;;;;;0.20;0.13;;;21.20;41.50;;;;;;5046877;28;20033;-49
2021/12/18 07:32:42;;;;;;;0.40;0.20;;;21.10;41.50;;;;;;5054342;28;20320;-47
2021/12/18 07:35:09;;;;;;;0.10;0.10;;;21.10;41.50;;;;;;5042596;28;20049;-48
2021/12/18 07:37:35;;;;;;;0.10;0.10;;;21.10;41.50;;;;;;5041828;28;20467;-49
2021/12/18 07:40:05;;;;;;;0.10;0.10;;;21.10;42.10;;;;;;5049242;28;20044;-54
2021/12/18 07:42:31;;;;;;;0.20;0.20;;;21.10;41.40;;;;;;5053203;28;20044;-46
2021/12/18 07:44:57;;;;;;;0.20;0.20;;;21.10;41.50;;;;;;5052889;28;20032;-51
2021/12/18 07:47:23;;;;;;;0.40;0.20;;;21.10;41.40;;;;;;5017357;28;20049;-46
2021/12/18 07:49:49;;;;;;;0.20;0.20;;;21.10;41.40;;;;;;5037460;28;20081;-53
2021/12/18 07:52:15;;;;;;;0.20;0.20;;;21.10;41.30;;;;;;5046142;28;20044;-55
2021/12/18 07:54:41;;;;;;;1.65;0.40;;;21.10;41.30;;;;;;5035266;28;20017;-53
2021/12/18 07:57:07;;;;;;;2.08;0.30;;;21.10;41.20;;;;;;5053067;28;20081;-50
2021/12/18 07:59:33;;;;;;;0.15;0.15;;;21.10;41.10;;;;;;5053442;28;20024;-50
2021/12/18 08:02:00;;;;;;;0.55;0.10;;;21.10;41.10;;;;;;5053532;28;20056;-50
2021/12/18 08:04:27;;;;;;;0.50;0.20;;;21.10;41.10;;;;;;5041508;28;20030;-46
2021/12/18 08:06:53;;;;;;;0.20;0.15;;;21.10;41.00;;;;;;5039415;28;20013;-47
2021/12/18 08:09:19;;;;;;;0.65;0.25;;;21.10;41.00;;;;;;5051161;28;20364;-53
2021/12/18 08:11:45;;;;;;;0.52;0.20;;;21.10;41.10;;;;;;5049426;28;20029;-50
2021/12/18 08:14:11;;;;;;;0.22;0.20;;;21.10;41.10;;;;;;5051910;28;20029;-50
2021/12/18 08:16:36;;;;;;;0.47;0.30;;;21.10;41.10;;;;;;5050102;28;20028;-54
2021/12/18 08:19:02;;;;;;;0.55;0.20;;;21.20;41.10;;;;;;5047469;28;20021;-48
2021/12/18 08:21:28;;;;;;;0.80;0.20;;;21.20;41.20;;;;;;5051331;28;20087;-51
2021/12/18 08:23:54;;;;;;;0.80;0.30;;;21.20;41.10;;;;;;5046318;28;20037;-52
2021/12/18 08:26:20;;;;;;;0.17;0.17;;;21.30;41.10;;;;;;5044657;28;20029;-53
2021/12/18 08:28:45;;;;;;;0.22;0.20;;;21.40;41.00;;;;;;5057904;28;20021;-52
2021/12/18 08:31:11;;;;;;;0.50;0.30;;;21.40;40.80;;;;;;5038900;28;20055;-52
2021/12/18 08:33:37;;;;;;;0.20;0.20;;;21.50;40.70;;;;;;5050225;28;20297;-47
2021/12/18 08:36:03;;;;;;;0.95;0.20;;;21.60;40.50;;;;;;5047418;28;20052;-51
2021/12/18 08:38:29;;;;;;;0.30;0.20;;;21.70;40.40;;;;;;5057497;28;20029;-54
2021/12/18 08:40:59;;;;;;;0.60;0.20;;;21.80;40.30;;;;;;5057059;28;20047;-51
2021/12/18 08:43:25;;;;;;;0.30;0.10;;;21.80;40.20;;;;;;5045284;28;20020;-51
2021/12/18 08:45:51;;;;;;;0.57;0.30;;;21.90;40.10;;;;;;5041634;28;20447;-52
2021/12/18 08:48:17;;;;;;;0.20;0.20;;;22.00;40.00;;;;;;5045574;28;20039;-53
2021/12/18 08:50:43;;;;;;;0.40;0.20;;;22.00;39.80;;;;;;5057128;28;20029;-55
2021/12/18 08:53:12;;;;;;;0.50;0.20;;;22.10;39.80;;;;;;5056505;28;20021;-47
2021/12/18 08:55:47;;;;;;;0.20;0.15;;;22.20;39.70;;;;;;5055985;28;20021;-55
2021/12/18 08:58:13;;;;;;;0.10;0.10;;;22.20;39.60;;;;;;5039149;28;20329;-56
2021/12/18 09:00:40;;;;;;;0.20;0.10;;;22.30;39.60;;;;;;5056492;28;20045;-48
2021/12/18 09:03:06;;;;;;;0.10;0.10;;;22.30;39.50;;;;;;5057176;28;20444;-55
2021/12/18 09:05:31;;;;;;;1.88;0.30;;;22.40;39.40;;;;;;5056205;28;20029;-56
2021/12/18 09:07:57;;;;;;;0.20;0.10;;;22.50;39.40;;;;;;5055877;28;20397;-49
2021/12/18 09:10:27;;;;;;;0.75;0.20;;;22.50;39.20;;;;;;5056449;28;20033;-50
2021/12/18 09:12:54;;;;;;;0.17;0.10;;;22.60;39.20;;;;;;5056214;28;20063;-55
2021/12/18 09:15:20;;;;;;;0.85;0.17;;;22.60;39.00;;;;;;5044034;28;20091;-48
2021/12/18 09:17:46;;;;;;;0.20;0.20;;;22.70;38.90;;;;;;5057185;28;20021;-55
2021/12/18 09:20:12;;;;;;;0.30;0.28;;;22.80;38.90;;;;;;5055126;28;20460;-52
2021/12/18 09:22:38;;;;;;;0.25;0.20;;;22.80;38.70;;;;;;5056498;28;20068;-51
2021/12/18 09:25:05;;;;;;;0.45;0.20;;;22.90;38.70;;;;;;5056283;28;20400;-50
2021/12/18 09:27:33;;;;;;;0.17;0.10;;;22.90;38.50;;;;;;5053826;28;20435;-53
2021/12/18 09:29:58;;;;;;;0.20;0.10;;;23.00;39.10;;;;;;5056791;28;20043;-55
2021/12/18 09:32:24;;;;;;;0.10;0.10;;;23.00;38.40;;;;;;5055918;28;20108;-50
2021/12/18 09:34:50;;;;;;;0.28;0.20;;;23.10;38.30;;;;;;5056597;28;20032;-52
2021/12/18 09:37:16;;;;;;;0.17;0.17;;;23.10;38.20;;;;;;5054753;28;20444;-58
2021/12/18 09:39:42;;;;;;;0.57;0.30;;;23.10;38.10;;;;;;5055038;28;20033;-47
2021/12/18 09:42:07;;;;;;;0.35;0.30;;;23.20;38.10;;;;;;5055554;28;20028;-54
2021/12/18 09:44:35;;;;;;;0.13;0.10;;;23.20;38.00;;;;;;5055733;28;20025;-50
2021/12/18 09:47:01;;;;;;;0.90;0.17;;;23.30;38.60;;;;;;5055911;28;20118;-54
2021/12/18 09:49:28;;;;;;;0.52;0.20;;;23.30;37.80;;;;;;5055694;28;20432;-53
2021/12/18 09:51:55;;;;;;;0.68;0.20;;;23.30;37.80;;;;;;5054480;28;20020;-56
2021/12/18 09:54:23;;;;;;;0.20;0.20;;;23.40;37.90;;;;;;5056182;28;20025;-55
2021/12/18 09:56:49;;;;;;;0.25;0.20;;;23.50;37.90;;;;;;5037542;28;20144;-60
2021/12/18 09:59:16;;;;;;;1.88;0.10;;;23.50;37.90;;;;;;5056097;28;20028;-60
2021/12/18 10:01:42;;;;;;;0.03;0.03;;;23.60;37.90;;;;;;5054682;28;20207;-56
2021/12/18 10:04:25;;;;;;;0.10;0.10;;;23.70;37.80;;;;;;5056098;28;20116;-58
2021/12/18 10:06:51;;;;;;;0.25;0.10;;;23.70;37.70;;;;;;5037930;28;20348;-58
2021/12/18 10:09:20;;;;;;;0.20;0.10;;;23.80;37.70;;;;;;5055381;28;20032;-56
2021/12/18 10:11:56;;;;;;;0.20;0.20;;;23.90;37.70;;;;;;5055357;28;20025;-58
2021/12/18 10:14:58;;;;;;;0.08;0.08;;;23.90;37.50;;;;;;5055450;28;20091;-58
2021/12/18 10:17:29;;;;;;;0.15;0.08;;;23.90;37.40;;;;;;5051929;28;20068;-53
2021/12/18 10:20:14;;;;;;;0.25;0.10;;;24.00;37.60;;;;;;5046599;28;20031;-55
2021/12/18 10:22:43;;;;;;;0.10;0.10;;;24.00;37.50;;;;;;5055463;28;20029;-57
2021/12/18 10:25:10;;;;;;;0.10;0.10;;;24.00;37.40;;;;;;5054012;28;20081;-51
2021/12/18 10:27:37;;;;;;;0.43;0.13;;;24.10;37.40;;;;;;5054345;28;20432;-57
2021/12/18 10:30:22;;;;;;;0.10;0.10;;;24.10;37.30;;;;;;5055516;28;20100;-58
2021/12/18 10:32:59;;;;;;;0.13;0.10;;;24.20;37.20;;;;;;5055245;28;20429;-55
2021/12/18 10:35:46;;;;;;;0.22;0.10;;;24.20;37.20;;;;;;5037564;28;20033;-53
2021/12/18 10:38:46;;;;;;;0.40;0.10;;;24.20;37.10;;;;;;5054704;28;20035;-57
2021/12/18 10:41:18;;;;;;;0.20;0.10;;;24.20;37.00;;;;;;5054616;28;20436;-58
2021/12/18 10:43:59;;;;;;;0.20;0.20;;;24.30;37.10;;;;;;5055062;28;20584;-52
2021/12/18 10:46:26;;;;;;;0.15;0.10;;;24.30;37.00;;;;;;5036489;28;20440;-55
2021/12/18 10:48:57;;;;;;;0.10;0.10;;;24.20;36.90;;;;;;5054914;28;20041;-48
2021/12/18 10:51:24;;;;;;;0.10;0.05;;;24.30;36.90;;;;;;5054412;28;20036;-54
2021/12/18 10:53:52;;;;;;;1.30;0.10;;;24.30;36.90;;;;;;5055642;28;20035;-53
2021/12/18 10:56:32;;;;;;;0.25;0.10;;;24.30;36.90;;;;;;5054384;28;20059;-53
2021/12/18 10:59:04;;;;;;;0.60;0.20;;;24.40;36.80;;;;;;5054443;28;20029;-46
2021/12/18 11:01:31;;;;;;;0.43;0.10;;;24.40;36.80;;;;;;5054172;28;20041;-51
2021/12/18 11:03:57;;;;;;;0.10;0.10;;;24.40;36.80;;;;;;5036853;28;20044;-53
2021/12/18 11:06:28;;;;;;;0.43;0.10;;;24.40;36.80;;;;;;5045310;28;20052;-50
2021/12/18 11:09:14;;;;;;;0.45;0.10;;;24.40;36.80;;;;;;5043420;28;20032;-52
2021/12/18 11:14:30;;;;;;;0.30;0.20;;;24.40;36.70;;;;;;5048655;28;20411;-50
2021/12/18 11:16:59;;;;;;;0.20;0.15;;;24.40;36.70;;;;;;5042159;28;20099;-56
2021/12/18 11:19:28;;;;;;;0.55;0.05;;;24.30;36.80;;;;;;5040613;28;20033;-51
2021/12/18 11:21:58;;;;;;;1.08;0.20;;;24.40;36.80;;;;;;5036123;28;20031;-52
2021/12/18 11:24:45;;;;;;;0.60;0.20;;;24.40;36.70;;;;;;5039796;28;20032;-56
2021/12/18 11:27:17;;;;;;;0.20;0.10;;;24.40;36.50;;;;;;5047717;28;20112;-51
2021/12/18 11:29:54;;;;;;;0.30;0.17;;;24.40;36.40;;;;;;5046653;28;20025;-49
2021/12/18 11:32:26;;;;;;;0.30;0.20;;;24.40;36.40;;;;;;5040749;28;20067;-50
2021/12/18 11:34:56;;;;;;;0.20;0.10;;;24.30;36.40;;;;;;5045558;28;20036;-56
2021/12/18 11:37:25;;;;;;;0.43;0.10;;;24.40;36.50;;;;;;5045170;28;20061;-53
2021/12/18 11:39:57;;;;;;;0.20;0.20;;;24.40;36.50;;;;;;5042626;28;20044;-50
2021/12/18 11:42:32;;;;;;;0.13;0.10;;;24.40;36.50;;;;;;5025319;28;20044;-48
2021/12/18 11:45:01;;;;;;;0.20;0.20;;;24.50;36.70;;;;;;5038738;28;20041;-46
2021/12/18 11:47:38;;;;;;;0.10;0.10;;;24.50;36.80;;;;;;5043060;28;20033;-52
2021/12/18 11:50:25;;;;;;;0.35;0.20;;;24.60;36.80;;;;;;5034636;28;20043;-46
2021/12/18 11:52:57;;;;;;;0.40;0.20;;;24.50;36.80;;;;;;5025165;28;20082;-50
2021/12/18 11:55:25;;;;;;;0.25;0.20;;;24.50;36.80;;;;;;5040884;28;20039;-51
2021/12/18 11:57:53;;;;;;;0.20;0.20;;;24.50;36.90;;;;;;5043616;28;20037;-49
2021/12/18 12:00:19;;;;;;;0.15;0.10;;;24.60;36.90;;;;;;5043741;28;20021;-53
2021/12/18 12:02:48;;;;;;;0.17;0.10;;;24.60;36.90;;;;;;5040467;28;20537;-51
2021/12/18 12:05:17;;;;;;;0.22;0.20;;;24.60;36.90;;;;;;5044499;28;20029;-50
2021/12/18 12:07:44;;;;;;;0.70;0.40;;;24.60;36.90;;;;;;5040891;28;20048;-50
2021/12/18 12:10:21;;;;;;;0.20;0.20;;;24.60;37.10;;;;;;5045578;28;20041;-55
2021/12/18 12:12:57;;;;;;;0.15;0.10;;;24.60;36.80;;;;;;5051360;28;20039;-56
2021/12/18 12:15:26;;;;;;;1.75;0.20;;;24.70;36.80;;;;;;5049698;28;20040;-54
2021/12/18 12:18:00;;;;;;;0.20;0.20;;;24.70;36.90;;;;;;5053573;28;20071;-48
2021/12/18 12:20:45;;;;;;;0.50;0.20;;;24.70;37.50;;;;;;5049381;28;20108;-54
2021/12/18 12:23:14;;;;;;;0.35;0.13;;;24.70;36.80;;;;;;5044861;28;20072;-53
2021/12/18 12:25:51;;;;;;;2.03;0.10;;;24.70;36.80;;;;;;5051167;28;20336;-55
2021/12/18 12:28:25;;;;;;;0.40;0.20;;;24.70;36.70;;;;;;5044210;28;20087;-58
2021/12/18 12:31:05;;;;;;;0.17;0.15;;;24.70;36.70;;;;;;5049259;28;20021;-57
2021/12/18 12:33:34;;;;;;;0.20;0.20;;;24.70;36.80;;;;;;5025124;28;20036;-60
2021/12/18 12:36:15;;;;;;;2.83;0.20;;;24.70;36.80;;;;;;5051422;28;20025;-57
2021/12/18 12:38:59;;;;;;;0.10;0.10;;;24.60;36.80;;;;;;5051613;28;20025;-55
2021/12/18 12:41:41;;;;;;;0.05;0.05;;;24.60;36.80;;;;;;5041725;28;20053;-50
2021/12/18 12:44:24;;;;;;;0.65;0.17;;;24.60;36.80;;;;;;5052823;28;20052;-53
2021/12/18 12:47:15;;;;;;;0.25;0.20;;;24.60;36.70;;;;;;5038299;28;20044;-50
2021/12/18 12:49:43;;;;;;;0.22;0.10;;;24.60;36.70;;;;;;5039626;28;20048;-49
2021/12/18 12:52:14;;;;;;;0.10;0.10;;;24.60;36.90;;;;;;5053169;28;20111;-55
2021/12/18 12:55:06;;;;;;;0.10;0.10;;;24.60;36.90;;;;;;5051571;28;20021;-54
2021/12/18 12:57:55;;;;;;;0.17;0.10;;;24.70;37.00;;;;;;5042471;28;20091;-57
2021/12/18 13:00:23;;;;;;;1.95;0.20;;;24.60;36.90;;;;;;5041156;28;20421;-55
2021/12/18 13:02:58;;;;;;;0.63;0.10;;;24.60;37.10;;;;;;5024647;28;20056;-55
2021/12/18 13:05:31;;;;;;;0.20;0.20;;;24.60;37.10;;;;;;5045425;28;20025;-57
2021/12/18 13:08:01;;;;;;;0.63;0.05;;;24.70;37.10;;;;;;5030838;28;20469;-57
2021/12/18 13:10:35;;;;;;;0.25;0.10;;;24.70;37.10;;;;;;5042053;28;20372;-58
2021/12/18 13:13:10;;;;;;;0.32;0.13;;;24.70;37.10;;;;;;5042199;28;20379;-55
2021/12/18 13:16:10;;;;;;;0.28;0.10;;;24.70;37.10;;;;;;5042380;28;20021;-56
2021/12/18 13:18:58;;;;;;;0.10;0.10;;;24.70;37.00;;;;;;5047656;28;20029;-49
2021/12/18 13:21:29;;;;;;;0.57;0.20;;;24.70;37.00;;;;;;5047049;28;20033;-58
2021/12/18 13:24:02;;;;;;;1.73;0.20;;;24.70;37.20;;;;;;5036349;28;20381;-55
2021/12/18 13:26:42;;;;;;;0.50;0.32;;;24.70;37.20;;;;;;5040582;28;20025;-51
2021/12/18 13:29:18;;;;;;;0.60;0.30;;;24.70;37.20;;;;;;5043949;28;20289;-56
2021/12/18 13:31:47;;;;;;;0.10;0.10;;;24.70;37.20;;;;;;5047472;28;20087;-56
2021/12/18 13:34:19;;;;;;;0.10;0.10;;;24.70;37.20;;;;;;5043089;28;20056;-52
2021/12/18 13:36:49;;;;;;;0.32;0.10;;;24.80;37.10;;;;;;5042961;28;20060;-48
2021/12/18 13:39:20;;;;;;;0.30;0.15;;;24.70;37.00;;;;;;5038362;28;20467;-56
2021/12/18 13:42:11;;;;;;;0.98;0.10;;;24.70;37.00;;;;;;5045004;28;20033;-48